sensor_id;sensor_type;location;lat;lon;timestamp;pressure;altitude;pressure_sealevel;temperature;humidity
60240;BME280;46102;39.012;-7.064;2024-03-22T00:01:01;98513.44;;;18.52;76.03
60240;BME280;46102;39.012;-7.064;2024-03-22T00:03:02;98521.41;;;18.54;76.25
60240;BME280;46102;39.012;-7.064;2024-03-22T00:05:03;98518.63;;;18.54;76.13
60240;BME280;46102;39.012;-7.064;2024-03-22T00:07:04;98513.50;;;18.56;75.67
60240;BME280;46102;39.012;-7.064;2024-03-22T00:09:05;98528.63;;;18.58;75.44
60240;BME280;46102;39.012;-7.064;2024-03-22T00:11:06;98527.44;;;18.59;75.58
60240;BME280;46102;39.012;-7.064;2024-03-22T00:13:07;98521.09;;;18.59;75.52
60240;BME280;46102;39.012;-7.064;2024-03-22T00:15:07;98523.44;;;18.57;75.88
60240;BME280;46102;39.012;-7.064;2024-03-22T00:17:08;98537.13;;;18.46;80.11
60240;BME280;46102;39.012;-7.064;2024-03-22T00:19:09;98535.84;;;18.40;80.86
60240;BME280;46102;39.012;-7.064;2024-03-22T00:21:10;98539.66;;;18.31;83.51
60240;BME280;46102;39.012;-7.064;2024-03-22T00:23:10;98541.88;;;18.22;86.67
60240;BME280;46102;39.012;-7.064;2024-03-22T00:25:11;98528.66;;;18.16;88.39
60240;BME280;46102;39.012;-7.064;2024-03-22T00:27:12;98540.09;;;18.10;89.21
60240;BME280;46102;39.012;-7.064;2024-03-22T00:29:13;98525.69;;;18.05;91.17
60240;BME280;46102;39.012;-7.064;2024-03-22T00:31:13;98534.31;;;18.00;95.05
60240;BME280;46102;39.012;-7.064;2024-03-22T00:33:14;98522.44;;;17.99;94.99
60240;BME280;46102;39.012;-7.064;2024-03-22T00:35:15;98533.44;;;17.96;97.73
60240;BME280;46102;39.012;-7.064;2024-03-22T00:37:16;98535.34;;;17.92;98.65
60240;BME280;46102;39.012;-7.064;2024-03-22T00:39:16;98529.34;;;17.89;98.63
60240;BME280;46102;39.012;-7.064;2024-03-22T00:41:17;98535.66;;;17.86;98.42
60240;BME280;46102;39.012;-7.064;2024-03-22T00:43:19;98529.75;;;17.88;98.96
60240;BME280;46102;39.012;-7.064;2024-03-22T00:45:20;98518.63;;;17.88;99.26
60240;BME280;46102;39.012;-7.064;2024-03-22T00:47:21;98490.91;;;17.88;99.25
60240;BME280;46102;39.012;-7.064;2024-03-22T00:49:22;98483.72;;;17.87;99.97
60240;BME280;46102;39.012;-7.064;2024-03-22T00:51:23;98473.81;;;17.86;100.00
60240;BME280;46102;39.012;-7.064;2024-03-22T00:53:23;98461.88;;;17.85;99.61
60240;BME280;46102;39.012;-7.064;2024-03-22T00:55:24;98458.69;;;17.83;100.00
60240;BME280;46102;39.012;-7.064;2024-03-22T00:57:25;98446.31;;;17.81;99.60
60240;BME280;46102;39.012;-7.064;2024-03-22T00:59:26;98449.47;;;17.79;99.31
60240;BME280;46102;39.012;-7.064;2024-03-22T01:01:27;98452.25;;;17.79;98.35
60240;BME280;46102;39.012;-7.064;2024-03-22T01:03:28;98474.06;;;17.81;97.32
60240;BME280;46102;39.012;-7.064;2024-03-22T01:05:29;98490.00;;;17.84;96.37
60240;BME280;46102;39.012;-7.064;2024-03-22T01:07:29;98505.56;;;17.88;95.23
60240;BME280;46102;39.012;-7.064;2024-03-22T01:09:30;98498.47;;;17.91;94.17
60240;BME280;46102;39.012;-7.064;2024-03-22T01:11:32;98485.84;;;17.94;93.25
60240;BME280;46102;39.012;-7.064;2024-03-22T01:13:32;98479.53;;;17.97;92.41
60240;BME280;46102;39.012;-7.064;2024-03-22T01:15:33;98491.06;;;17.99;91.63
60240;BME280;46102;39.012;-7.064;2024-03-22T01:17:34;98487.50;;;17.98;90.96
60240;BME280;46102;39.012;-7.064;2024-03-22T01:19:35;98465.31;;;17.98;90.45
60240;BME280;46102;39.012;-7.064;2024-03-22T01:21:35;98461.72;;;17.98;89.93
60240;BME280;46102;39.012;-7.064;2024-03-22T01:23:36;98439.00;;;17.92;89.23
60240;BME280;46102;39.012;-7.064;2024-03-22T01:25:37;98437.34;;;17.87;88.53
60240;BME280;46102;39.012;-7.064;2024-03-22T01:27:38;98433.34;;;17.85;87.54
60240;BME280;46102;39.012;-7.064;2024-03-22T01:29:38;98440.75;;;17.81;86.35
60240;BME280;46102;39.012;-7.064;2024-03-22T01:31:39;98447.06;;;17.78;85.12
60240;BME280;46102;39.012;-7.064;2024-03-22T01:33:40;98451.38;;;17.75;83.78
60240;BME280;46102;39.012;-7.064;2024-03-22T01:35:41;98451.38;;;17.75;82.76
60240;BME280;46102;39.012;-7.064;2024-03-22T01:37:41;98446.19;;;17.74;82.71
60240;BME280;46102;39.012;-7.064;2024-03-22T01:39:42;98452.13;;;17.72;83.18
60240;BME280;46102;39.012;-7.064;2024-03-22T01:41:43;98448.91;;;17.70;83.24
60240;BME280;46102;39.012;-7.064;2024-03-22T01:43:44;98448.94;;;17.74;82.70
60240;BME280;46102;39.012;-7.064;2024-03-22T01:45:45;98440.94;;;17.68;82.53
60240;BME280;46102;39.012;-7.064;2024-03-22T01:47:46;98430.16;;;17.63;83.77
60240;BME280;46102;39.012;-7.064;2024-03-22T01:49:49;98436.41;;;17.60;84.46
60240;BME280;46102;39.012;-7.064;2024-03-22T01:51:51;98440.72;;;17.58;85.18
60240;BME280;46102;39.012;-7.064;2024-03-22T01:53:53;98437.59;;;17.59;84.21
60240;BME280;46102;39.012;-7.064;2024-03-22T01:55:54;98430.38;;;17.55;84.03
60240;BME280;46102;39.012;-7.064;2024-03-22T01:57:55;98435.94;;;17.55;83.11
60240;BME280;46102;39.012;-7.064;2024-03-22T01:59:58;98425.97;;;17.54;83.67
60240;BME280;46102;39.012;-7.064;2024-03-22T02:02:00;98420.38;;;17.50;84.65
60240;BME280;46102;39.012;-7.064;2024-03-22T02:04:01;98419.50;;;17.46;84.35
60240;BME280;46102;39.012;-7.064;2024-03-22T02:06:02;98434.03;;;17.39;84.75
60240;BME280;46102;39.012;-7.064;2024-03-22T02:08:03;98404.72;;;17.38;84.75
60240;BME280;46102;39.012;-7.064;2024-03-22T02:10:04;98409.38;;;17.34;83.73
60240;BME280;46102;39.012;-7.064;2024-03-22T02:12:06;98413.75;;;17.35;83.19
60240;BME280;46102;39.012;-7.064;2024-03-22T02:14:06;98408.16;;;17.32;82.93
60240;BME280;46102;39.012;-7.064;2024-03-22T02:16:07;98409.75;;;17.33;82.62
60240;BME280;46102;39.012;-7.064;2024-03-22T02:18:08;98417.25;;;17.32;82.48
60240;BME280;46102;39.012;-7.064;2024-03-22T02:20:10;98406.53;;;17.31;82.82
60240;BME280;46102;39.012;-7.064;2024-03-22T02:22:12;98400.19;;;17.30;82.24
60240;BME280;46102;39.012;-7.064;2024-03-22T02:24:13;98396.22;;;17.31;81.38
60240;BME280;46102;39.012;-7.064;2024-03-22T02:26:14;98389.09;;;17.30;81.09
60240;BME280;46102;39.012;-7.064;2024-03-22T02:28:14;98379.69;;;17.35;81.19
60240;BME280;46102;39.012;-7.064;2024-03-22T02:30:15;98375.59;;;17.28;82.22
60240;BME280;46102;39.012;-7.064;2024-03-22T02:32:16;98372.03;;;17.28;81.68
60240;BME280;46102;39.012;-7.064;2024-03-22T02:34:17;98368.38;;;17.24;81.73
60240;BME280;46102;39.012;-7.064;2024-03-22T02:36:18;98378.44;;;17.32;81.19
60240;BME280;46102;39.012;-7.064;2024-03-22T02:38:19;98374.28;;;17.22;80.71
60240;BME280;46102;39.012;-7.064;2024-03-22T02:40:19;98370.28;;;17.20;80.07
60240;BME280;46102;39.012;-7.064;2024-03-22T02:42:20;98380.56;;;17.19;79.57
60240;BME280;46102;39.012;-7.064;2024-03-22T02:44:21;98387.34;;;17.22;79.30
60240;BME280;46102;39.012;-7.064;2024-03-22T02:46:22;98389.31;;;17.21;79.26
60240;BME280;46102;39.012;-7.064;2024-03-22T02:48:22;98392.09;;;17.21;79.66
60240;BME280;46102;39.012;-7.064;2024-03-22T02:50:23;98393.31;;;17.24;80.10
60240;BME280;46102;39.012;-7.064;2024-03-22T02:52:24;98388.97;;;17.23;80.90
60240;BME280;46102;39.012;-7.064;2024-03-22T02:54:25;98378.22;;;17.21;81.59
60240;BME280;46102;39.012;-7.064;2024-03-22T02:56:26;98367.50;;;17.20;81.88
60240;BME280;46102;39.012;-7.064;2024-03-22T02:58:26;98357.94;;;17.17;82.25
60240;BME280;46102;39.012;-7.064;2024-03-22T03:00:27;98361.09;;;17.16;82.06
60240;BME280;46102;39.012;-7.064;2024-03-22T03:02:28;98363.44;;;17.14;81.54
60240;BME280;46102;39.012;-7.064;2024-03-22T03:04:28;98362.63;;;17.13;80.77
60240;BME280;46102;39.012;-7.064;2024-03-22T03:06:29;98367.44;;;17.16;79.39
60240;BME280;46102;39.012;-7.064;2024-03-22T03:08:30;98373.00;;;17.16;78.93
60240;BME280;46102;39.012;-7.064;2024-03-22T03:10:31;98367.06;;;17.18;78.14
60240;BME280;46102;39.012;-7.064;2024-03-22T03:12:32;98358.75;;;17.18;77.51
60240;BME280;46102;39.012;-7.064;2024-03-22T03:14:32;98363.94;;;17.19;77.45
60240;BME280;46102;39.012;-7.064;2024-03-22T03:16:33;98360.81;;;17.21;77.29
60240;BME280;46102;39.012;-7.064;2024-03-22T03:18:34;98357.22;;;17.20;77.47
60240;BME280;46102;39.012;-7.064;2024-03-22T03:20:35;98360.81;;;17.21;77.23
60240;BME280;46102;39.012;-7.064;2024-03-22T03:22:36;98354.47;;;17.20;76.64
60240;BME280;46102;39.012;-7.064;2024-03-22T03:24:37;98360.00;;;17.20;76.75
60240;BME280;46102;39.012;-7.064;2024-03-22T03:26:37;98363.88;;;17.16;76.76
60240;BME280;46102;39.012;-7.064;2024-03-22T03:28:38;98366.34;;;17.21;76.58
60240;BME280;46102;39.012;-7.064;2024-03-22T03:30:39;98369.47;;;17.19;74.87
60240;BME280;46102;39.012;-7.064;2024-03-22T03:32:40;98364.28;;;17.18;73.32
60240;BME280;46102;39.012;-7.064;2024-03-22T03:34:41;98370.28;;;17.20;72.87
60240;BME280;46102;39.012;-7.064;2024-03-22T03:36:42;98373.47;;;17.22;72.81
60240;BME280;46102;39.012;-7.064;2024-03-22T03:38:42;98370.34;;;17.23;72.79
60240;BME280;46102;39.012;-7.064;2024-03-22T03:40:43;98375.91;;;17.23;72.79
60240;BME280;46102;39.012;-7.064;2024-03-22T03:42:44;98375.16;;;17.26;72.29
60240;BME280;46102;39.012;-7.064;2024-03-22T03:44:44;98366.03;;;17.26;71.60
60240;BME280;46102;39.012;-7.064;2024-03-22T03:46:45;98362.13;;;17.27;71.33
60240;BME280;46102;39.012;-7.064;2024-03-22T03:48:46;98356.19;;;17.28;70.88
60240;BME280;46102;39.012;-7.064;2024-03-22T03:50:53;98353.84;;;17.31;69.54
60240;BME280;46102;39.012;-7.064;2024-03-22T03:52:55;98349.09;;;17.31;69.20
60240;BME280;46102;39.012;-7.064;2024-03-22T03:54:56;98353.06;;;17.30;68.88
60240;BME280;46102;39.012;-7.064;2024-03-22T03:56:56;98340.34;;;17.29;69.09
60240;BME280;46102;39.012;-7.064;2024-03-22T03:58:57;98337.22;;;17.31;69.14
60240;BME280;46102;39.012;-7.064;2024-03-22T04:00:58;98337.22;;;17.31;68.72
60240;BME280;46102;39.012;-7.064;2024-03-22T04:02:59;98334.81;;;17.29;68.58
60240;BME280;46102;39.012;-7.064;2024-03-22T04:04:59;98342.75;;;17.31;67.86
60240;BME280;46102;39.012;-7.064;2024-03-22T04:07:00;98331.25;;;17.28;67.25
60240;BME280;46102;39.012;-7.064;2024-03-22T04:09:01;98334.00;;;17.28;67.46
60240;BME280;46102;39.012;-7.064;2024-03-22T04:11:03;98341.19;;;17.30;67.40
60240;BME280;46102;39.012;-7.064;2024-03-22T04:13:04;98336.44;;;17.30;66.87
60240;BME280;46102;39.012;-7.064;2024-03-22T04:15:05;98339.19;;;17.30;66.18
60240;BME280;46102;39.012;-7.064;2024-03-22T04:17:06;98333.28;;;17.32;66.47
60240;BME280;46102;39.012;-7.064;2024-03-22T04:19:07;98337.66;;;17.33;66.25
60240;BME280;46102;39.012;-7.064;2024-03-22T04:21:08;98338.44;;;17.33;65.76
60240;BME280;46102;39.012;-7.064;2024-03-22T04:23:09;98336.88;;;17.32;65.26
60240;BME280;46102;39.012;-7.064;2024-03-22T04:25:10;98328.09;;;17.30;65.28
60240;BME280;46102;39.012;-7.064;2024-03-22T04:27:10;98328.47;;;17.28;65.63
60240;BME280;46102;39.012;-7.064;2024-03-22T04:29:11;98337.56;;;17.29;65.58
60240;BME280;46102;39.012;-7.064;2024-03-22T04:31:12;98339.94;;;17.27;65.84
60240;BME280;46102;39.012;-7.064;2024-03-22T04:33:13;98337.97;;;17.27;65.90
60240;BME280;46102;39.012;-7.064;2024-03-22T04:35:13;98344.22;;;17.24;65.01
60240;BME280;46102;39.012;-7.064;2024-03-22T04:37:14;98337.97;;;17.27;65.23
60240;BME280;46102;39.012;-7.064;2024-03-22T04:39:15;98348.66;;;17.29;65.33
60240;BME280;46102;39.012;-7.064;2024-03-22T04:41:17;98341.53;;;17.28;65.04
60240;BME280;46102;39.012;-7.064;2024-03-22T04:43:18;98343.50;;;17.27;64.62
60240;BME280;46102;39.012;-7.064;2024-03-22T04:45:19;98346.28;;;17.27;64.62
60240;BME280;46102;39.012;-7.064;2024-03-22T04:47:20;98332.03;;;17.29;64.08
60240;BME280;46102;39.012;-7.064;2024-03-22T04:49:21;98339.84;;;17.23;63.59
60240;BME280;46102;39.012;-7.064;2024-03-22T04:51:21;98337.53;;;17.25;63.80
60240;BME280;46102;39.012;-7.064;2024-03-22T04:53:22;98337.44;;;17.22;63.50
60240;BME280;46102;39.012;-7.064;2024-03-22T04:55:23;98335.47;;;17.22;63.21
60240;BME280;46102;39.012;-7.064;2024-03-22T04:57:24;98344.22;;;17.24;63.19
60240;BME280;46102;39.012;-7.064;2024-03-22T04:59:24;98339.84;;;17.23;63.28
60240;BME280;46102;39.012;-7.064;2024-03-22T05:01:25;98337.84;;;17.20;63.34
60240;BME280;46102;39.012;-7.064;2024-03-22T05:03:26;98342.63;;;17.23;63.25
60240;BME280;46102;39.012;-7.064;2024-03-22T05:05:26;98336.66;;;17.21;63.26
60240;BME280;46102;39.012;-7.064;2024-03-22T05:07:27;98338.97;;;17.19;63.48
60240;BME280;46102;39.012;-7.064;2024-03-22T05:09:28;98338.19;;;17.19;63.49
60240;BME280;46102;39.012;-7.064;2024-03-22T05:11:29;98336.16;;;17.16;63.71
60240;BME280;46102;39.012;-7.064;2024-03-22T05:13:29;98332.94;;;17.14;63.62
60240;BME280;46102;39.012;-7.064;2024-03-22T05:15:31;98333.31;;;17.12;63.54
60240;BME280;46102;39.012;-7.064;2024-03-22T05:17:32;98326.97;;;17.12;63.99
60240;BME280;46102;39.012;-7.064;2024-03-22T05:19:33;98326.09;;;17.08;64.18
60240;BME280;46102;39.012;-7.064;2024-03-22T05:21:34;98329.66;;;17.08;64.36
60240;BME280;46102;39.012;-7.064;2024-03-22T05:23:35;98324.06;;;17.04;64.02
60240;BME280;46102;39.012;-7.064;2024-03-22T05:25:35;98323.25;;;17.04;64.34
60240;BME280;46102;39.012;-7.064;2024-03-22T05:27:36;98325.56;;;17.02;64.44
60240;BME280;46102;39.012;-7.064;2024-03-22T05:29:37;98333.88;;;17.02;63.92
60240;BME280;46102;39.012;-7.064;2024-03-22T05:31:46;98328.72;;;17.00;63.41
60240;BME280;46102;39.012;-7.064;2024-03-22T05:33:47;98330.31;;;17.01;63.16
60240;BME280;46102;39.012;-7.064;2024-03-22T05:35:48;98333.44;;;17.00;62.61
60240;BME280;46102;39.012;-7.064;2024-03-22T05:37:49;98330.66;;;17.00;61.71
60240;BME280;46102;39.012;-7.064;2024-03-22T05:39:50;98334.28;;;17.00;61.85
60240;BME280;46102;39.012;-7.064;2024-03-22T05:41:50;98330.25;;;16.98;61.91
60240;BME280;46102;39.012;-7.064;2024-03-22T05:43:51;98334.63;;;16.99;61.40
60240;BME280;46102;39.012;-7.064;2024-03-22T05:45:52;98337.03;;;17.00;61.40
60240;BME280;46102;39.012;-7.064;2024-03-22T05:47:53;98338.28;;;17.03;61.10
60240;BME280;46102;39.012;-7.064;2024-03-22T05:49:53;98342.59;;;17.00;60.90
60240;BME280;46102;39.012;-7.064;2024-03-22T05:51:54;98336.31;;;17.03;61.07
60240;BME280;46102;39.012;-7.064;2024-03-22T05:53:55;98331.94;;;17.02;60.57
60240;BME280;46102;39.012;-7.064;2024-03-22T05:55:56;98322.81;;;17.02;60.80
60240;BME280;46102;39.012;-7.064;2024-03-22T05:57:57;98329.16;;;17.02;60.66
60240;BME280;46102;39.012;-7.064;2024-03-22T05:59:58;98327.09;;;16.99;60.47
60240;BME280;46102;39.012;-7.064;2024-03-22T06:01:59;98323.63;;;17.02;60.41
60240;BME280;46102;39.012;-7.064;2024-03-22T06:04:01;98319.59;;;17.00;60.22
60240;BME280;46102;39.012;-7.064;2024-03-22T06:06:02;98316.03;;;16.99;60.12
60240;BME280;46102;39.012;-7.064;2024-03-22T06:08:04;98325.53;;;16.98;60.16
60240;BME280;46102;39.012;-7.064;2024-03-22T06:10:05;98318.44;;;17.01;59.58
60240;BME280;46102;39.012;-7.064;2024-03-22T06:12:06;98320.03;;;17.02;58.85
60240;BME280;46102;39.012;-7.064;2024-03-22T06:14:07;98316.47;;;17.01;58.69
60240;BME280;46102;39.012;-7.064;2024-03-22T06:16:08;98323.97;;;17.01;58.40
60240;BME280;46102;39.012;-7.064;2024-03-22T06:18:08;98331.19;;;17.05;58.33
60240;BME280;46102;39.012;-7.064;2024-03-22T06:20:09;98340.31;;;17.06;58.44
60240;BME280;46102;39.012;-7.064;2024-03-22T06:22:12;98334.72;;;17.02;58.65
60240;BME280;46102;39.012;-7.064;2024-03-22T06:24:12;98335.50;;;17.03;58.97
60240;BME280;46102;39.012;-7.064;2024-03-22T06:26:13;98333.44;;;17.00;58.98
60240;BME280;46102;39.012;-7.064;2024-03-22T06:28:14;98339.38;;;16.98;58.72
60240;BME280;46102;39.012;-7.064;2024-03-22T06:30:15;98344.13;;;16.98;58.76
60240;BME280;46102;39.012;-7.064;2024-03-22T06:32:15;98341.75;;;17.00;58.49
60240;BME280;46102;39.012;-7.064;2024-03-22T06:34:16;98342.19;;;17.02;58.09
60240;BME280;46102;39.012;-7.064;2024-03-22T06:36:17;98353.28;;;17.02;57.88
60240;BME280;46102;39.012;-7.064;2024-03-22T06:38:18;98357.66;;;17.03;57.59
60240;BME280;46102;39.012;-7.064;2024-03-22T06:40:19;98360.88;;;17.05;57.41
60240;BME280;46102;39.012;-7.064;2024-03-22T06:42:20;98352.19;;;17.06;57.08
60240;BME280;46102;39.012;-7.064;2024-03-22T06:44:21;98356.94;;;17.06;57.03
60240;BME280;46102;39.012;-7.064;2024-03-22T06:46:22;98359.00;;;17.09;56.56
60240;BME280;46102;39.012;-7.064;2024-03-22T06:48:23;98347.47;;;17.07;56.42
60240;BME280;46102;39.012;-7.064;2024-03-22T06:50:24;98359.00;;;17.09;56.50
60240;BME280;46102;39.012;-7.064;2024-03-22T06:52:25;98347.16;;;17.12;56.29
60240;BME280;46102;39.012;-7.064;2024-03-22T06:54:26;98351.91;;;17.12;56.18
60240;BME280;46102;39.012;-7.064;2024-03-22T06:56:26;98351.16;;;17.15;56.13
60240;BME280;46102;39.012;-7.064;2024-03-22T06:58:27;98359.94;;;17.17;55.93
60240;BME280;46102;39.012;-7.064;2024-03-22T07:00:29;98354.72;;;17.15;55.44
60240;BME280;46102;39.012;-7.064;2024-03-22T07:02:30;98357.50;;;17.15;55.41
60240;BME280;46102;39.012;-7.064;2024-03-22T07:04:31;98357.16;;;17.17;55.47
60240;BME280;46102;39.012;-7.064;2024-03-22T07:06:32;98351.25;;;17.18;54.87
60240;BME280;46102;39.012;-7.064;2024-03-22T07:08:33;98352.84;;;17.19;54.83
60240;BME280;46102;39.012;-7.064;2024-03-22T07:10:35;98345.75;;;17.22;54.54
60240;BME280;46102;39.012;-7.064;2024-03-22T07:12:39;98351.31;;;17.22;54.67
60240;BME280;46102;39.012;-7.064;2024-03-22T07:14:40;98356.94;;;17.25;54.46
60240;BME280;46102;39.012;-7.064;2024-03-22T07:16:41;98352.94;;;17.23;54.31
60240;BME280;46102;39.012;-7.064;2024-03-22T07:18:42;98350.59;;;17.25;54.19
60240;BME280;46102;39.012;-7.064;2024-03-22T07:20:42;98353.81;;;17.27;54.21
60240;BME280;46102;39.012;-7.064;2024-03-22T07:22:45;98349.06;;;17.27;54.24
60240;BME280;46102;39.012;-7.064;2024-03-22T07:24:46;98341.97;;;17.30;54.09
60240;BME280;46102;39.012;-7.064;2024-03-22T07:26:51;98351.06;;;17.31;54.13
60240;BME280;46102;39.012;-7.064;2024-03-22T07:28:52;98352.25;;;17.30;53.94
60240;BME280;46102;39.012;-7.064;2024-03-22T07:30:53;98353.06;;;17.30;53.75
60240;BME280;46102;39.012;-7.064;2024-03-22T07:32:55;98363.78;;;17.32;53.60
60240;BME280;46102;39.012;-7.064;2024-03-22T07:34:56;98355.47;;;17.32;53.68
60240;BME280;46102;39.012;-7.064;2024-03-22T07:36:58;98363.47;;;17.37;53.74
60240;BME280;46102;39.012;-7.064;2024-03-22T07:38:59;98365.81;;;17.35;53.62
60240;BME280;46102;39.012;-7.064;2024-03-22T07:40:59;98363.47;;;17.37;53.83
60240;BME280;46102;39.012;-7.064;2024-03-22T07:43:00;98361.88;;;17.36;53.46
60240;BME280;46102;39.012;-7.064;2024-03-22T07:45:07;98359.91;;;17.36;53.46
60240;BME280;46102;39.012;-7.064;2024-03-22T07:47:08;98367.50;;;17.39;53.24
60240;BME280;46102;39.012;-7.064;2024-03-22T07:49:08;98358.38;;;17.39;53.30
60240;BME280;46102;39.012;-7.064;2024-03-22T07:51:09;98356.84;;;17.41;53.37
60240;BME280;46102;39.012;-7.064;2024-03-22T07:53:10;98365.59;;;17.43;53.29
60240;BME280;46102;39.012;-7.064;2024-03-22T07:55:11;98367.69;;;17.50;53.35
60240;BME280;46102;39.012;-7.064;2024-03-22T07:57:12;98370.09;;;17.52;53.29
60240;BME280;46102;39.012;-7.064;2024-03-22T07:59:13;98374.03;;;17.51;53.46
60240;BME280;46102;39.012;-7.064;2024-03-22T08:01:13;98376.44;;;17.52;53.59
60240;BME280;46102;39.012;-7.064;2024-03-22T08:03:15;98381.19;;;17.52;53.45
60240;BME280;46102;39.012;-7.064;2024-03-22T08:05:16;98374.91;;;17.55;53.80
60240;BME280;46102;39.012;-7.064;2024-03-22T08:07:17;98384.03;;;17.55;53.73
60240;BME280;46102;39.012;-7.064;2024-03-22T08:09:18;98382.13;;;17.59;53.51
60240;BME280;46102;39.012;-7.064;2024-03-22T08:11:19;98385.69;;;17.60;53.26
60240;BME280;46102;39.012;-7.064;2024-03-22T08:13:20;98386.94;;;17.62;52.79
60240;BME280;46102;39.012;-7.064;2024-03-22T08:15:21;98386.13;;;17.62;53.11
60240;BME280;46102;39.012;-7.064;2024-03-22T08:17:22;98382.63;;;17.65;52.87
60240;BME280;46102;39.012;-7.064;2024-03-22T08:19:23;98384.72;;;17.72;52.66
60240;BME280;46102;39.012;-7.064;2024-03-22T08:21:24;98376.78;;;17.70;52.39
60240;BME280;46102;39.012;-7.064;2024-03-22T08:23:25;98381.94;;;17.72;52.36
60240;BME280;46102;39.012;-7.064;2024-03-22T08:25:26;98383.56;;;17.73;52.53
60240;BME280;46102;39.012;-7.064;2024-03-22T08:27:27;98380.03;;;17.76;52.50
60240;BME280;46102;39.012;-7.064;2024-03-22T08:29:27;98387.63;;;17.79;52.61
60240;BME280;46102;39.012;-7.064;2024-03-22T08:31:28;98384.88;;;17.79;52.61
60240;BME280;46102;39.012;-7.064;2024-03-22T08:33:29;98383.34;;;17.81;52.67
60240;BME280;46102;39.012;-7.064;2024-03-22T08:35:30;98387.34;;;17.84;52.91
60240;BME280;46102;39.012;-7.064;2024-03-22T08:37:32;98386.19;;;17.85;52.76
60240;BME280;46102;39.012;-7.064;2024-03-22T08:39:34;98379.16;;;17.91;52.25
60240;BME280;46102;39.012;-7.064;2024-03-22T08:41:34;98384.78;;;17.95;52.44
60240;BME280;46102;39.012;-7.064;2024-03-22T08:43:35;98389.13;;;17.96;52.23
60240;BME280;46102;39.012;-7.064;2024-03-22T08:45:36;98386.88;;;18.01;52.34
60240;BME280;46102;39.012;-7.064;2024-03-22T08:47:37;98385.38;;;18.07;51.92
60240;BME280;46102;39.012;-7.064;2024-03-22T08:49:38;98395.78;;;18.14;51.50
60240;BME280;46102;39.012;-7.064;2024-03-22T08:51:39;98401.41;;;18.18;51.06
60240;BME280;46102;39.012;-7.064;2024-03-22T08:53:40;98410.66;;;18.25;50.99
60240;BME280;46102;39.012;-7.064;2024-03-22T08:55:47;98399.19;;;18.27;51.08
60240;BME280;46102;39.012;-7.064;2024-03-22T08:57:48;98407.19;;;18.32;51.08
60240;BME280;46102;39.012;-7.064;2024-03-22T08:59:49;98408.84;;;18.37;50.55
60240;BME280;46102;39.012;-7.064;2024-03-22T09:01:49;98419.25;;;18.43;50.38
60240;BME280;46102;39.012;-7.064;2024-03-22T09:03:50;98413.03;;;18.50;50.16
60240;BME280;46102;39.012;-7.064;2024-03-22T09:05:53;98408.75;;;18.56;50.20
60240;BME280;46102;39.012;-7.064;2024-03-22T09:07:54;98412.44;;;18.64;49.86
60240;BME280;46102;39.012;-7.064;2024-03-22T09:09:56;98414.50;;;18.70;49.68
60240;BME280;46102;39.012;-7.064;2024-03-22T09:11:56;98411.06;;;18.77;49.49
60240;BME280;46102;39.012;-7.064;2024-03-22T09:13:57;98415.91;;;18.80;49.29
60240;BME280;46102;39.012;-7.064;2024-03-22T09:15:59;98412.34;;;18.83;49.36
60240;BME280;46102;39.012;-7.064;2024-03-22T09:17:59;98405.31;;;18.89;49.02
60240;BME280;46102;39.012;-7.064;2024-03-22T09:20:00;98406.19;;;18.97;49.08
60240;BME280;46102;39.012;-7.064;2024-03-22T09:22:01;98405.47;;;19.04;48.88
60240;BME280;46102;39.012;-7.064;2024-03-22T09:24:03;98400.34;;;19.06;48.96
60240;BME280;46102;39.012;-7.064;2024-03-22T09:26:05;98407.50;;;19.07;49.20
60240;BME280;46102;39.012;-7.064;2024-03-22T09:28:06;98408.75;;;19.09;49.26
60240;BME280;46102;39.012;-7.064;2024-03-22T09:30:07;98416.25;;;19.09;49.26
60240;BME280;46102;39.012;-7.064;2024-03-22T09:32:08;98405.19;;;19.12;49.14
60240;BME280;46102;39.012;-7.064;2024-03-22T09:34:09;98402.88;;;19.18;49.15
60240;BME280;46102;39.012;-7.064;2024-03-22T09:36:10;98408.91;;;19.24;48.57
60240;BME280;46102;39.012;-7.064;2024-03-22T09:38:11;98408.19;;;19.30;48.71
60240;BME280;46102;39.012;-7.064;2024-03-22T09:40:13;98401.44;;;19.31;48.73
60240;BME280;46102;39.012;-7.064;2024-03-22T09:42:16;98403.91;;;19.37;49.06
60240;BME280;46102;39.012;-7.064;2024-03-22T09:44:19;98400.00;;;19.41;48.98
60240;BME280;46102;39.012;-7.064;2024-03-22T09:46:20;98402.47;;;19.50;49.15
60240;BME280;46102;39.012;-7.064;2024-03-22T09:48:22;98394.56;;;19.55;48.95
60240;BME280;46102;39.012;-7.064;2024-03-22T09:50:23;98391.03;;;19.59;49.18
60240;BME280;46102;39.012;-7.064;2024-03-22T09:52:25;98388.66;;;19.61;49.51
60240;BME280;46102;39.012;-7.064;2024-03-22T09:54:26;98382.44;;;19.71;49.48
60240;BME280;46102;39.012;-7.064;2024-03-22T09:56:27;98382.88;;;19.76;48.84
60240;BME280;46102;39.012;-7.064;2024-03-22T09:58:31;98383.03;;;19.91;48.88
60240;BME280;46102;39.012;-7.064;2024-03-22T10:00:31;98385.53;;;20.03;48.62
60240;BME280;46102;39.012;-7.064;2024-03-22T10:02:33;98376.91;;;20.15;48.31
60240;BME280;46102;39.012;-7.064;2024-03-22T10:04:34;98375.38;;;20.25;48.53
60240;BME280;46102;39.012;-7.064;2024-03-22T10:06:36;98377.91;;;20.48;47.95
60240;BME280;46102;39.012;-7.064;2024-03-22T10:08:38;98382.44;;;20.64;47.85
60240;BME280;46102;39.012;-7.064;2024-03-22T10:10:39;98382.19;;;20.94;47.79
60240;BME280;46102;39.012;-7.064;2024-03-22T10:12:40;98391.50;;;21.27;46.64
60240;BME280;46102;39.012;-7.064;2024-03-22T10:14:43;98392.03;;;21.54;45.68
60240;BME280;46102;39.012;-7.064;2024-03-22T10:16:44;98388.91;;;21.80;45.60
60240;BME280;46102;39.012;-7.064;2024-03-22T10:18:45;98386.94;;;21.92;44.37
60240;BME280;46102;39.012;-7.064;2024-03-22T10:20:59;98378.16;;;22.04;43.70
60240;BME280;46102;39.012;-7.064;2024-03-22T10:23:00;98373.78;;;22.14;43.99
60240;BME280;46102;39.012;-7.064;2024-03-22T10:25:01;98374.19;;;22.16;43.37
60240;BME280;46102;39.012;-7.064;2024-03-22T10:27:05;98377.78;;;22.16;43.75
60240;BME280;46102;39.012;-7.064;2024-03-22T10:29:06;98375.75;;;22.13;43.60
60240;BME280;46102;39.012;-7.064;2024-03-22T10:31:07;98384.16;;;22.17;43.71
60240;BME280;46102;39.012;-7.064;2024-03-22T10:33:08;98383.75;;;22.18;43.52